sensor_id;sensor_type;location;lat;lon;timestamp;P1;durP1;ratioP1;P2;durP2;ratioP2
62709;SDS011;48770;51.624;5.886;2023-04-25T00:01:21;1.17;;;0.50;;
62709;SDS011;48770;51.624;5.886;2023-04-25T00:03:49;0.90;;;0.50;;
62709;SDS011;48770;51.624;5.886;2023-04-25T00:06:15;0.85;;;0.60;;
62709;SDS011;48770;51.624;5.886;2023-04-25T00:08:40;2.15;;;0.47;;
62709;SDS011;48770;51.624;5.886;2023-04-25T00:11:06;0.47;;;0.35;;
62709;SDS011;48770;51.624;5.886;2023-04-25T00:13:31;0.70;;;0.50;;
62709;SDS011;48770;51.624;5.886;2023-04-25T00:15:57;1.20;;;0.50;;
62709;SDS011;48770;51.624;5.886;2023-04-25T00:18:23;0.70;;;0.50;;
62709;SDS011;48770;51.624;5.886;2023-04-25T00:20:48;1.35;;;0.40;;
62709;SDS011;48770;51.624;5.886;2023-04-25T00:23:14;1.52;;;0.57;;
62709;SDS011;48770;51.624;5.886;2023-04-25T00:25:42;0.90;;;0.30;;
62709;SDS011;48770;51.624;5.886;2023-04-25T00:28:08;1.27;;;0.40;;
62709;SDS011;48770;51.624;5.886;2023-04-25T00:30:33;0.85;;;0.43;;
62709;SDS011;48770;51.624;5.886;2023-04-25T00:32:59;0.80;;;0.50;;
62709;SDS011;48770;51.624;5.886;2023-04-25T00:35:24;1.35;;;0.60;;
62709;SDS011;48770;51.624;5.886;2023-04-25T00:37:49;1.50;;;0.50;;
62709;SDS011;48770;51.624;5.886;2023-04-25T00:40:14;0.80;;;0.50;;
62709;SDS011;48770;51.624;5.886;2023-04-25T00:42:40;1.15;;;0.40;;
62709;SDS011;48770;51.624;5.886;2023-04-25T00:45:06;0.63;;;0.40;;
62709;SDS011;48770;51.624;5.886;2023-04-25T00:47:34;0.50;;;0.40;;
62709;SDS011;48770;51.624;5.886;2023-04-25T00:50:00;0.98;;;0.40;;
62709;SDS011;48770;51.624;5.886;2023-04-25T00:52:26;1.25;;;0.65;;
62709;SDS011;48770;51.624;5.886;2023-04-25T00:54:51;0.65;;;0.40;;
62709;SDS011;48770;51.624;5.886;2023-04-25T00:57:17;1.50;;;0.55;;
62709;SDS011;48770;51.624;5.886;2023-04-25T00:59:43;0.90;;;0.45;;
62709;SDS011;48770;51.624;5.886;2023-04-25T01:02:11;0.82;;;0.45;;
62709;SDS011;48770;51.624;5.886;2023-04-25T01:04:37;0.45;;;0.30;;
62709;SDS011;48770;51.624;5.886;2023-04-25T01:07:02;0.63;;;0.40;;
62709;SDS011;48770;51.624;5.886;2023-04-25T01:09:28;1.10;;;0.38;;
62709;SDS011;48770;51.624;5.886;2023-04-25T01:11:55;1.05;;;0.50;;
62709;SDS011;48770;51.624;5.886;2023-04-25T01:14:20;1.05;;;0.30;;
62709;SDS011;48770;51.624;5.886;2023-04-25T01:16:45;1.92;;;0.60;;
62709;SDS011;48770;51.624;5.886;2023-04-25T01:19:11;1.13;;;0.60;;
62709;SDS011;48770;51.624;5.886;2023-04-25T01:21:41;0.82;;;0.30;;
62709;SDS011;48770;51.624;5.886;2023-04-25T01:24:06;0.43;;;0.30;;
62709;SDS011;48770;51.624;5.886;2023-04-25T01:26:32;0.98;;;0.40;;
62709;SDS011;48770;51.624;5.886;2023-04-25T01:28:58;0.50;;;0.40;;
62709;SDS011;48770;51.624;5.886;2023-04-25T01:31:24;1.77;;;0.40;;
62709;SDS011;48770;51.624;5.886;2023-04-25T01:33:50;0.85;;;0.40;;
62709;SDS011;48770;51.624;5.886;2023-04-25T01:36:16;0.68;;;0.25;;
62709;SDS011;48770;51.624;5.886;2023-04-25T01:38:42;1.27;;;0.38;;
62709;SDS011;48770;51.624;5.886;2023-04-25T01:41:08;0.52;;;0.30;;
62709;SDS011;48770;51.624;5.886;2023-04-25T01:43:34;0.70;;;0.40;;
62709;SDS011;48770;51.624;5.886;2023-04-25T01:46:00;0.73;;;0.40;;
62709;SDS011;48770;51.624;5.886;2023-04-25T01:48:26;0.50;;;0.20;;
62709;SDS011;48770;51.624;5.886;2023-04-25T01:50:51;1.23;;;0.50;;
62709;SDS011;48770;51.624;5.886;2023-04-25T01:53:16;1.48;;;0.43;;
62709;SDS011;48770;51.624;5.886;2023-04-25T01:55:42;0.70;;;0.40;;
62709;SDS011;48770;51.624;5.886;2023-04-25T01:58:07;0.73;;;0.40;;
62709;SDS011;48770;51.624;5.886;2023-04-25T02:00:34;0.90;;;0.40;;
62709;SDS011;48770;51.624;5.886;2023-04-25T02:03:02;1.25;;;0.60;;
62709;SDS011;48770;51.624;5.886;2023-04-25T02:05:28;0.70;;;0.47;;
62709;SDS011;48770;51.624;5.886;2023-04-25T02:07:53;0.80;;;0.60;;
62709;SDS011;48770;51.624;5.886;2023-04-25T02:10:20;1.02;;;0.40;;
62709;SDS011;48770;51.624;5.886;2023-04-25T02:12:45;0.57;;;0.30;;
62709;SDS011;48770;51.624;5.886;2023-04-25T02:15:10;0.30;;;0.30;;
62709;SDS011;48770;51.624;5.886;2023-04-25T02:17:36;0.60;;;0.30;;
62709;SDS011;48770;51.624;5.886;2023-04-25T02:20:01;0.43;;;0.35;;
62709;SDS011;48770;51.624;5.886;2023-04-25T02:22:26;0.30;;;0.30;;
62709;SDS011;48770;51.624;5.886;2023-04-25T02:24:54;0.45;;;0.20;;
62709;SDS011;48770;51.624;5.886;2023-04-25T02:27:20;0.82;;;0.40;;
62709;SDS011;48770;51.624;5.886;2023-04-25T02:29:45;0.75;;;0.30;;
62709;SDS011;48770;51.624;5.886;2023-04-25T02:32:10;0.55;;;0.30;;
62709;SDS011;48770;51.624;5.886;2023-04-25T02:34:35;0.82;;;0.47;;
62709;SDS011;48770;51.624;5.886;2023-04-25T02:37:01;0.90;;;0.40;;
62709;SDS011;48770;51.624;5.886;2023-04-25T02:39:27;1.17;;;0.40;;
62709;SDS011;48770;51.624;5.886;2023-04-25T02:41:52;1.55;;;0.50;;
62709;SDS011;48770;51.624;5.886;2023-04-25T02:44:18;1.23;;;0.40;;
62709;SDS011;48770;51.624;5.886;2023-04-25T02:46:43;0.52;;;0.38;;
62709;SDS011;48770;51.624;5.886;2023-04-25T02:49:08;0.80;;;0.40;;
62709;SDS011;48770;51.624;5.886;2023-04-25T02:51:33;0.60;;;0.30;;
62709;SDS011;48770;51.624;5.886;2023-04-25T02:53:59;1.02;;;0.30;;
62709;SDS011;48770;51.624;5.886;2023-04-25T02:56:27;0.65;;;0.20;;
62709;SDS011;48770;51.624;5.886;2023-04-25T02:58:53;0.80;;;0.30;;
62709;SDS011;48770;51.624;5.886;2023-04-25T03:01:18;0.75;;;0.35;;
62709;SDS011;48770;51.624;5.886;2023-04-25T03:03:47;1.20;;;0.50;;
62709;SDS011;48770;51.624;5.886;2023-04-25T03:06:12;0.75;;;0.25;;
62709;SDS011;48770;51.624;5.886;2023-04-25T03:08:37;0.40;;;0.32;;
62709;SDS011;48770;51.624;5.886;2023-04-25T03:11:03;0.73;;;0.30;;
62709;SDS011;48770;51.624;5.886;2023-04-25T03:13:28;1.10;;;0.38;;
62709;SDS011;48770;51.624;5.886;2023-04-25T03:15:54;0.60;;;0.47;;
62709;SDS011;48770;51.624;5.886;2023-04-25T03:18:20;0.50;;;0.30;;
62709;SDS011;48770;51.624;5.886;2023-04-25T03:20:45;0.57;;;0.30;;
62709;SDS011;48770;51.624;5.886;2023-04-25T03:23:11;1.20;;;0.32;;
62709;SDS011;48770;51.624;5.886;2023-04-25T03:25:36;0.32;;;0.22;;
62709;SDS011;48770;51.624;5.886;2023-04-25T03:28:02;0.52;;;0.30;;
62709;SDS011;48770;51.624;5.886;2023-04-25T03:30:27;0.30;;;0.30;;
62709;SDS011;48770;51.624;5.886;2023-04-25T03:32:52;0.57;;;0.30;;
62709;SDS011;48770;51.624;5.886;2023-04-25T03:35:18;0.98;;;0.43;;
62709;SDS011;48770;51.624;5.886;2023-04-25T03:37:43;0.60;;;0.32;;
62709;SDS011;48770;51.624;5.886;2023-04-25T03:40:10;0.32;;;0.28;;
62709;SDS011;48770;51.624;5.886;2023-04-25T03:42:36;0.82;;;0.40;;
62709;SDS011;48770;51.624;5.886;2023-04-25T03:45:01;1.35;;;0.35;;
62709;SDS011;48770;51.624;5.886;2023-04-25T03:47:26;1.02;;;0.50;;
62709;SDS011;48770;51.624;5.886;2023-04-25T03:49:52;0.63;;;0.30;;
62709;SDS011;48770;51.624;5.886;2023-04-25T03:52:17;0.75;;;0.30;;
62709;SDS011;48770;51.624;5.886;2023-04-25T03:54:43;0.40;;;0.30;;
62709;SDS011;48770;51.624;5.886;2023-04-25T03:57:08;0.68;;;0.30;;
62709;SDS011;48770;51.624;5.886;2023-04-25T03:59:33;0.85;;;0.40;;
62709;SDS011;48770;51.624;5.886;2023-04-25T04:01:59;0.35;;;0.30;;
62709;SDS011;48770;51.624;5.886;2023-04-25T04:04:24;0.22;;;0.20;;
62709;SDS011;48770;51.624;5.886;2023-04-25T04:06:49;0.60;;;0.32;;
62709;SDS011;48770;51.624;5.886;2023-04-25T04:09:15;0.65;;;0.50;;
62709;SDS011;48770;51.624;5.886;2023-04-25T04:11:41;0.50;;;0.30;;
62709;SDS011;48770;51.624;5.886;2023-04-25T04:14:07;0.68;;;0.30;;
62709;SDS011;48770;51.624;5.886;2023-04-25T04:16:32;0.85;;;0.50;;
62709;SDS011;48770;51.624;5.886;2023-04-25T04:18:57;0.65;;;0.32;;
62709;SDS011;48770;51.624;5.886;2023-04-25T04:21:23;1.38;;;0.40;;
62709;SDS011;48770;51.624;5.886;2023-04-25T04:23:48;0.63;;;0.30;;
62709;SDS011;48770;51.624;5.886;2023-04-25T04:26:14;0.32;;;0.20;;
62709;SDS011;48770;51.624;5.886;2023-04-25T04:28:41;1.27;;;0.45;;
62709;SDS011;48770;51.624;5.886;2023-04-25T04:31:07;0.85;;;0.40;;
62709;SDS011;48770;51.624;5.886;2023-04-25T04:33:32;1.15;;;0.40;;
62709;SDS011;48770;51.624;5.886;2023-04-25T04:35:58;0.63;;;0.30;;
62709;SDS011;48770;51.624;5.886;2023-04-25T04:38:23;1.00;;;0.40;;
62709;SDS011;48770;51.624;5.886;2023-04-25T04:40:50;0.82;;;0.40;;
62709;SDS011;48770;51.624;5.886;2023-04-25T04:43:17;0.80;;;0.38;;
62709;SDS011;48770;51.624;5.886;2023-04-25T04:45:43;0.95;;;0.57;;
62709;SDS011;48770;51.624;5.886;2023-04-25T04:48:09;0.85;;;0.45;;
62709;SDS011;48770;51.624;5.886;2023-04-25T04:50:36;1.42;;;0.30;;
62709;SDS011;48770;51.624;5.886;2023-04-25T04:53:02;1.25;;;0.40;;
62709;SDS011;48770;51.624;5.886;2023-04-25T04:55:29;1.73;;;0.43;;
62709;SDS011;48770;51.624;5.886;2023-04-25T04:57:54;0.85;;;0.40;;
62709;SDS011;48770;51.624;5.886;2023-04-25T05:00:19;1.15;;;0.30;;
62709;SDS011;48770;51.624;5.886;2023-04-25T05:02:45;0.70;;;0.30;;
62709;SDS011;48770;51.624;5.886;2023-04-25T05:05:11;0.50;;;0.20;;
62709;SDS011;48770;51.624;5.886;2023-04-25T05:07:36;0.77;;;0.40;;
62709;SDS011;48770;51.624;5.886;2023-04-25T05:10:02;1.10;;;0.30;;
62709;SDS011;48770;51.624;5.886;2023-04-25T05:12:28;0.65;;;0.30;;
62709;SDS011;48770;51.624;5.886;2023-04-25T05:14:53;0.70;;;0.30;;
62709;SDS011;48770;51.624;5.886;2023-04-25T05:17:19;1.02;;;0.30;;
62709;SDS011;48770;51.624;5.886;2023-04-25T05:19:44;1.80;;;0.40;;
62709;SDS011;48770;51.624;5.886;2023-04-25T05:22:09;1.27;;;0.35;;
62709;SDS011;48770;51.624;5.886;2023-04-25T05:24:35;1.25;;;0.57;;
62709;SDS011;48770;51.624;5.886;2023-04-25T05:27:00;0.73;;;0.40;;
62709;SDS011;48770;51.624;5.886;2023-04-25T05:29:26;0.28;;;0.20;;
62709;SDS011;48770;51.624;5.886;2023-04-25T05:31:51;0.88;;;0.20;;
62709;SDS011;48770;51.624;5.886;2023-04-25T05:34:16;0.95;;;0.30;;
62709;SDS011;48770;51.624;5.886;2023-04-25T05:36:42;0.63;;;0.22;;
62709;SDS011;48770;51.624;5.886;2023-04-25T05:39:07;0.45;;;0.30;;
62709;SDS011;48770;51.624;5.886;2023-04-25T05:41:33;0.73;;;0.43;;
62709;SDS011;48770;51.624;5.886;2023-04-25T05:43:59;0.90;;;0.45;;
62709;SDS011;48770;51.624;5.886;2023-04-25T05:46:24;1.48;;;0.30;;
62709;SDS011;48770;51.624;5.886;2023-04-25T05:48:49;1.23;;;0.20;;
62709;SDS011;48770;51.624;5.886;2023-04-25T05:51:15;0.70;;;0.30;;
62709;SDS011;48770;51.624;5.886;2023-04-25T05:53:41;0.60;;;0.30;;
62709;SDS011;48770;51.624;5.886;2023-04-25T05:56:06;0.60;;;0.38;;
62709;SDS011;48770;51.624;5.886;2023-04-25T05:58:32;0.55;;;0.20;;
62709;SDS011;48770;51.624;5.886;2023-04-25T06:00:57;1.10;;;0.30;;
62709;SDS011;48770;51.624;5.886;2023-04-25T06:03:23;0.90;;;0.40;;
62709;SDS011;48770;51.624;5.886;2023-04-25T06:05:48;0.70;;;0.30;;
62709;SDS011;48770;51.624;5.886;2023-04-25T06:08:13;0.57;;;0.30;;
62709;SDS011;48770;51.624;5.886;2023-04-25T06:10:39;0.90;;;0.30;;
62709;SDS011;48770;51.624;5.886;2023-04-25T06:13:04;0.57;;;0.30;;
62709;SDS011;48770;51.624;5.886;2023-04-25T06:15:30;0.55;;;0.32;;
62709;SDS011;48770;51.624;5.886;2023-04-25T06:17:57;1.38;;;0.30;;
62709;SDS011;48770;51.624;5.886;2023-04-25T06:20:22;0.85;;;0.35;;
62709;SDS011;48770;51.624;5.886;2023-04-25T06:22:49;1.38;;;0.20;;
62709;SDS011;48770;51.624;5.886;2023-04-25T06:25:15;0.85;;;0.40;;
62709;SDS011;48770;51.624;5.886;2023-04-25T06:27:41;0.40;;;0.30;;
62709;SDS011;48770;51.624;5.886;2023-04-25T06:30:06;1.33;;;0.52;;
62709;SDS011;48770;51.624;5.886;2023-04-25T06:32:32;1.30;;;0.50;;
62709;SDS011;48770;51.624;5.886;2023-04-25T06:34:59;1.00;;;0.40;;
62709;SDS011;48770;51.624;5.886;2023-04-25T06:37:24;1.10;;;0.30;;
62709;SDS011;48770;51.624;5.886;2023-04-25T06:39:50;0.60;;;0.30;;
62709;SDS011;48770;51.624;5.886;2023-04-25T06:42:15;0.85;;;0.40;;
62709;SDS011;48770;51.624;5.886;2023-04-25T06:44:41;0.68;;;0.20;;
62709;SDS011;48770;51.624;5.886;2023-04-25T06:47:06;0.88;;;0.20;;
62709;SDS011;48770;51.624;5.886;2023-04-25T06:49:31;1.23;;;0.40;;
62709;SDS011;48770;51.624;5.886;2023-04-25T06:51:56;0.93;;;0.40;;
62709;SDS011;48770;51.624;5.886;2023-04-25T06:54:22;0.98;;;0.30;;
62709;SDS011;48770;51.624;5.886;2023-04-25T06:56:47;0.32;;;0.20;;
62709;SDS011;48770;51.624;5.886;2023-04-25T06:59:12;1.05;;;0.50;;
62709;SDS011;48770;51.624;5.886;2023-04-25T07:01:38;0.90;;;0.38;;
62709;SDS011;48770;51.624;5.886;2023-04-25T07:04:03;0.95;;;0.30;;
62709;SDS011;48770;51.624;5.886;2023-04-25T07:06:28;0.40;;;0.20;;
62709;SDS011;48770;51.624;5.886;2023-04-25T07:08:54;0.63;;;0.25;;
62709;SDS011;48770;51.624;5.886;2023-04-25T07:11:20;1.33;;;0.40;;
62709;SDS011;48770;51.624;5.886;2023-04-25T07:13:46;0.80;;;0.30;;
62709;SDS011;48770;51.624;5.886;2023-04-25T07:16:11;0.57;;;0.30;;
62709;SDS011;48770;51.624;5.886;2023-04-25T07:18:36;1.25;;;0.40;;
62709;SDS011;48770;51.624;5.886;2023-04-25T07:21:02;1.05;;;0.30;;
62709;SDS011;48770;51.624;5.886;2023-04-25T07:23:27;0.52;;;0.28;;
62709;SDS011;48770;51.624;5.886;2023-04-25T07:25:52;1.27;;;0.35;;
62709;SDS011;48770;51.624;5.886;2023-04-25T07:28:18;0.43;;;0.20;;
62709;SDS011;48770;51.624;5.886;2023-04-25T07:30:43;0.70;;;0.25;;
62709;SDS011;48770;51.624;5.886;2023-04-25T07:33:08;1.00;;;0.28;;
62709;SDS011;48770;51.624;5.886;2023-04-25T07:35:34;0.55;;;0.22;;
62709;SDS011;48770;51.624;5.886;2023-04-25T07:37:59;0.98;;;0.40;;
62709;SDS011;48770;51.624;5.886;2023-04-25T07:40:25;0.77;;;0.32;;
62709;SDS011;48770;51.624;5.886;2023-04-25T07:42:50;1.00;;;0.50;;
62709;SDS011;48770;51.624;5.886;2023-04-25T07:45:16;0.73;;;0.20;;
62709;SDS011;48770;51.624;5.886;2023-04-25T07:47:41;0.47;;;0.30;;
62709;SDS011;48770;51.624;5.886;2023-04-25T07:50:06;0.45;;;0.20;;
62709;SDS011;48770;51.624;5.886;2023-04-25T07:52:32;0.20;;;0.20;;
62709;SDS011;48770;51.624;5.886;2023-04-25T07:54:57;1.33;;;0.40;;
62709;SDS011;48770;51.624;5.886;2023-04-25T07:57:23;0.47;;;0.20;;
62709;SDS011;48770;51.624;5.886;2023-04-25T07:59:49;0.40;;;0.30;;
62709;SDS011;48770;51.624;5.886;2023-04-25T08:02:14;1.08;;;0.35;;
62709;SDS011;48770;51.624;5.886;2023-04-25T08:04:40;0.82;;;0.30;;
62709;SDS011;48770;51.624;5.886;2023-04-25T08:07:05;0.55;;;0.22;;
62709;SDS011;48770;51.624;5.886;2023-04-25T08:09:30;0.20;;;0.10;;
62709;SDS011;48770;51.624;5.886;2023-04-25T08:11:59;0.47;;;0.20;;
62709;SDS011;48770;51.624;5.886;2023-04-25T08:14:26;0.45;;;0.20;;
62709;SDS011;48770;51.624;5.886;2023-04-25T08:16:51;0.73;;;0.40;;
62709;SDS011;48770;51.624;5.886;2023-04-25T08:19:16;0.40;;;0.30;;
62709;SDS011;48770;51.624;5.886;2023-04-25T08:21:42;0.30;;;0.30;;
62709;SDS011;48770;51.624;5.886;2023-04-25T08:24:07;0.70;;;0.20;;
62709;SDS011;48770;51.624;5.886;2023-04-25T08:26:32;0.47;;;0.13;;
62709;SDS011;48770;51.624;5.886;2023-04-25T08:28:58;0.82;;;0.20;;
62709;SDS011;48770;51.624;5.886;2023-04-25T08:31:23;1.08;;;0.40;;
62709;SDS011;48770;51.624;5.886;2023-04-25T08:33:48;0.50;;;0.20;;
62709;SDS011;48770;51.624;5.886;2023-04-25T08:36:14;1.10;;;0.30;;
62709;SDS011;48770;51.624;5.886;2023-04-25T08:38:39;0.65;;;0.10;;
62709;SDS011;48770;51.624;5.886;2023-04-25T08:41:05;0.22;;;0.10;;
62709;SDS011;48770;51.624;5.886;2023-04-25T08:43:31;0.28;;;0.20;;
62709;SDS011;48770;51.624;5.886;2023-04-25T08:45:58;0.50;;;0.20;;
62709;SDS011;48770;51.624;5.886;2023-04-25T08:48:25;1.08;;;0.30;;
62709;SDS011;48770;51.624;5.886;2023-04-25T08:50:53;0.20;;;0.17;;
62709;SDS011;48770;51.624;5.886;2023-04-25T08:53:21;0.75;;;0.30;;
62709;SDS011;48770;51.624;5.886;2023-04-25T08:55:55;0.68;;;0.28;;
62709;SDS011;48770;51.624;5.886;2023-04-25T08:58:21;0.77;;;0.20;;
62709;SDS011;48770;51.624;5.886;2023-04-25T09:00:47;1.15;;;0.20;;
62709;SDS011;48770;51.624;5.886;2023-04-25T09:03:14;0.73;;;0.30;;
62709;SDS011;48770;51.624;5.886;2023-04-25T09:05:40;0.68;;;0.30;;
62709;SDS011;48770;51.624;5.886;2023-04-25T09:08:06;0.30;;;0.20;;
62709;SDS011;48770;51.624;5.886;2023-04-25T09:10:32;0.57;;;0.15;;
62709;SDS011;48770;51.624;5.886;2023-04-25T09:15:46;0.55;;;0.20;;
62709;SDS011;48770;51.624;5.886;2023-04-25T09:18:12;0.70;;;0.20;;
62709;SDS011;48770;51.624;5.886;2023-04-25T09:20:41;0.85;;;0.20;;
62709;SDS011;48770;51.624;5.886;2023-04-25T09:23:07;0.40;;;0.20;;
62709;SDS011;48770;51.624;5.886;2023-04-25T09:25:33;0.93;;;0.30;;
62709;SDS011;48770;51.624;5.886;2023-04-25T09:28:03;0.38;;;0.15;;
62709;SDS011;48770;51.624;5.886;2023-04-25T09:30:30;0.50;;;0.20;;
62709;SDS011;48770;51.624;5.886;2023-04-25T09:32:57;0.22;;;0.22;;
62709;SDS011;48770;51.624;5.886;2023-04-25T09:35:28;0.40;;;0.20;;
62709;SDS011;48770;51.624;5.886;2023-04-25T09:37:53;0.75;;;0.30;;
62709;SDS011;48770;51.624;5.886;2023-04-25T09:40:19;0.30;;;0.30;;
62709;SDS011;48770;51.624;5.886;2023-04-25T09:42:44;0.10;;;0.10;;
62709;SDS011;48770;51.624;5.886;2023-04-25T09:45:12;0.30;;;0.20;;
62709;SDS011;48770;51.624;5.886;2023-04-25T09:47:39;0.40;;;0.30;;
62709;SDS011;48770;51.624;5.886;2023-04-25T09:50:13;0.60;;;0.30;;
62709;SDS011;48770;51.624;5.886;2023-04-25T09:52:40;0.35;;;0.17;;
62709;SDS011;48770;51.624;5.886;2023-04-25T09:55:05;0.20;;;0.10;;
62709;SDS011;48770;51.624;5.886;2023-04-25T09:57:31;0.65;;;0.25;;
62709;SDS011;48770;51.624;5.886;2023-04-25T09:59:56;0.60;;;0.28;;
62709;SDS011;48770;51.624;5.886;2023-04-25T10:02:25;0.30;;;0.10;;
62709;SDS011;48770;51.624;5.886;2023-04-25T10:04:52;0.45;;;0.20;;
62709;SDS011;48770;51.624;5.886;2023-04-25T10:07:20;0.55;;;0.20;;
62709;SDS011;48770;51.624;5.886;2023-04-25T10:09:50;0.70;;;0.20;;
62709;SDS011;48770;51.624;5.886;2023-04-25T10:12:25;0.17;;;0.17;;
62709;SDS011;48770;51.624;5.886;2023-04-25T10:14:52;0.10;;;0.10;;
62709;SDS011;48770;51.624;5.886;2023-04-25T10:17:17;0.30;;;0.10;;
62709;SDS011;48770;51.624;5.886;2023-04-25T10:19:45;0.28;;;0.10;;
62709;SDS011;48770;51.624;5.886;2023-04-25T10:24:43;0.32;;;0.20;;
62709;SDS011;48770;51.624;5.886;2023-04-25T10:27:11;1.05;;;0.28;;
62709;SDS011;48770;51.624;5.886;2023-04-25T10:29:37;0.40;;;0.20;;
62709;SDS011;48770;51.624;5.886;2023-04-25T10:32:02;0.50;;;0.20;;
62709;SDS011;48770;51.624;5.886;2023-04-25T10:34:41;1.38;;;0.15;;
62709;SDS011;48770;51.624;5.886;2023-04-25T10:37:08;1.13;;;0.40;;
62709;SDS011;48770;51.624;5.886;2023-04-25T10:39:35;1.05;;;0.30;;
62709;SDS011;48770;51.624;5.886;2023-04-25T10:42:02;0.98;;;0.25;;
62709;SDS011;48770;51.624;5.886;2023-04-25T10:44:28;0.43;;;0.20;;
62709;SDS011;48770;51.624;5.886;2023-04-25T10:46:55;0.55;;;0.17;;
62709;SDS011;48770;51.624;5.886;2023-04-25T10:49:32;0.40;;;0.20;;
62709;SDS011;48770;51.624;5.886;2023-04-25T10:54:51;0.38;;;0.10;;
62709;SDS011;48770;51.624;5.886;2023-04-25T10:59:59;0.40;;;0.30;;
62709;SDS011;48770;51.624;5.886;2023-04-25T11:02:57;0.57;;;0.20;;
62709;SDS011;48770;51.624;5.886;2023-04-25T11:07:56;0.52;;;0.20;;
62709;SDS011;48770;51.624;5.886;2023-04-25T11:10:29;0.77;;;0.30;;
62709;SDS011;48770;51.624;5.886;2023-04-25T11:12:57;0.38;;;0.20;;
62709;SDS011;48770;51.624;5.886;2023-04-25T11:15:23;0.30;;;0.10;;
62709;SDS011;48770;51.624;5.886;2023-04-25T11:17:50;0.25;;;0.10;;
62709;SDS011;48770;51.624;5.886;2023-04-25T11:20:16;0.20;;;0.10;;
62709;SDS011;48770;51.624;5.886;2023-04-25T11:22:41;0.15;;;0.10;;
62709;SDS011;48770;51.624;5.886;2023-04-25T11:25:10;1.17;;;0.17;;
62709;SDS011;48770;51.624;5.886;2023-04-25T11:27:37;0.35;;;0.10;;
62709;SDS011;48770;51.624;5.886;2023-04-25T11:30:22;0.35;;;0.05;;
62709;SDS011;48770;51.624;5.886;2023-04-25T11:32:48;0.40;;;0.10;;
62709;SDS011;48770;51.624;5.886;2023-04-25T11:35:14;0.43;;;0.13;;
62709;SDS011;48770;51.624;5.886;2023-04-25T11:37:40;0.20;;;0.10;;
62709;SDS011;48770;51.624;5.886;2023-04-25T11:40:06;0.10;;;0.10;;
62709;SDS011;48770;51.624;5.886;2023-04-25T11:42:34;0.10;;;0.00;;
62709;SDS011;48770;51.624;5.886;2023-04-25T11:45:02;0.10;;;0.10;;
62709;SDS011;48770;51.624;5.886;2023-04-25T11:47:29;0.65;;;0.20;;
62709;SDS011;48770;51.624;5.886;2023-04-25T11:49:57;0.15;;;0.05;;
62709;SDS011;48770;51.624;5.886;2023-04-25T11:52:42;0.70;;;0.10;;
62709;SDS011;48770;51.624;5.886;2023-04-25T11:57:39;0.30;;;0.20;;
62709;SDS011;48770;51.624;5.886;2023-04-25T12:00:07;0.20;;;0.10;;
62709;SDS011;48770;51.624;5.886;2023-04-25T12:02:42;0.28;;;0.20;;
62709;SDS011;48770;51.624;5.886;2023-04-25T12:05:09;0.30;;;0.20;;
62709;SDS011;48770;51.624;5.886;2023-04-25T12:07:35;0.30;;;0.20;;
62709;SDS011;48770;51.624;5.886;2023-04-25T12:10:05;0.75;;;0.28;;
62709;SDS011;48770;51.624;5.886;2023-04-25T12:12:33;0.20;;;0.10;;
62709;SDS011;48770;51.624;5.886;2023-04-25T12:15:08;0.52;;;0.10;;
62709;SDS011;48770;51.624;5.886;2023-04-25T12:17:37;0.50;;;0.10;;
62709;SDS011;48770;51.624;5.886;2023-04-25T12:20:07;0.88;;;0.10;;
62709;SDS011;48770;51.624;5.886;2023-04-25T12:22:33;0.28;;;0.10;;
62709;SDS011;48770;51.624;5.886;2023-04-25T12:24:59;0.22;;;0.10;;
62709;SDS011;48770;51.624;5.886;2023-04-25T12:27:25;0.10;;;0.10;;
62709;SDS011;48770;51.624;5.886;2023-04-25T12:29:52;0.30;;;0.10;;
62709;SDS011;48770;51.624;5.886;2023-04-25T12:32:18;0.55;;;0.10;;
62709;SDS011;48770;51.624;5.886;2023-04-25T12:34:44;0.32;;;0.10;;
62709;SDS011;48770;51.624;5.886;2023-04-25T12:37:09;0.63;;;0.20;;
62709;SDS011;48770;51.624;5.886;2023-04-25T12:39:35;0.10;;;0.05;;
62709;SDS011;48770;51.624;5.886;2023-04-25T12:42:00;0.82;;;0.17;;
62709;SDS011;48770;51.624;5.886;2023-04-25T12:44:26;1.33;;;0.20;;
62709;SDS011;48770;51.624;5.886;2023-04-25T12:46:51;0.20;;;0.10;;
62709;SDS011;48770;51.624;5.886;2023-04-25T12:49:17;0.45;;;0.20;;
62709;SDS011;48770;51.624;5.886;2023-04-25T12:51:43;0.20;;;0.10;;
62709;SDS011;48770;51.624;5.886;2023-04-25T12:54:09;0.28;;;0.10;;
62709;SDS011;48770;51.624;5.886;2023-04-25T12:56:35;0.28;;;0.10;;
62709;SDS011;48770;51.624;5.886;2023-04-25T12:59:01;0.60;;;0.20;;
62709;SDS011;48770;51.624;5.886;2023-04-25T13:01:28;0.45;;;0.10;;
62709;SDS011;48770;51.624;5.886;2023-04-25T13:03:54;1.63;;;0.20;;
62709;SDS011;48770;51.624;5.886;2023-04-25T13:06:19;0.22;;;0.10;;
62709;SDS011;48770;51.624;5.886;2023-04-25T13:08:45;1.13;;;0.10;;
62709;SDS011;48770;51.624;5.886;2023-04-25T13:11:11;0.10;;;0.10;;
62709;SDS011;48770;51.624;5.886;2023-04-25T13:13:37;0.45;;;0.10;;
62709;SDS011;48770;51.624;5.886;2023-04-25T13:16:03;0.25;;;0.10;;
62709;SDS011;48770;51.624;5.886;2023-04-25T13:18:29;0.30;;;0.10;;
62709;SDS011;48770;51.624;5.886;2023-04-25T13:20:55;0.20;;;0.10;;
62709;SDS011;48770;51.624;5.886;2023-04-25T13:23:21;0.47;;;0.10;;
62709;SDS011;48770;51.624;5.886;2023-04-25T13:25:47;0.10;;;0.10;;
62709;SDS011;48770;51.624;5.886;2023-04-25T13:28:12;0.50;;;0.15;;
62709;SDS011;48770;51.624;5.886;2023-04-25T13:30:39;0.75;;;0.20;;
62709;SDS011;48770;51.624;5.886;2023-04-25T13:33:04;0.50;;;0.15;;
62709;SDS011;48770;51.624;5.886;2023-04-25T13:35:31;0.20;;;0.10;;
62709;SDS011;48770;51.624;5.886;2023-04-25T13:37:58;0.40;;;0.10;;
62709;SDS011;48770;51.624;5.886;2023-04-25T13:40:23;0.73;;;0.17;;
62709;SDS011;48770;51.624;5.886;2023-04-25T13:42:49;0.52;;;0.10;;
62709;SDS011;48770;51.624;5.886;2023-04-25T13:45:14;0.30;;;0.20;;
62709;SDS011;48770;51.624;5.886;2023-04-25T13:47:39;0.95;;;0.15;;
62709;SDS011;48770;51.624;5.886;2023-04-25T13:50:05;0.47;;;0.20;;
62709;SDS011;48770;51.624;5.886;2023-04-25T13:52:32;0.30;;;0.10;;
62709;SDS011;48770;51.624;5.886;2023-04-25T13:54:57;0.35;;;0.13;;
62709;SDS011;48770;51.624;5.886;2023-04-25T13:57:23;1.27;;;0.10;;
62709;SDS011;48770;51.624;5.886;2023-04-25T13:59:48;0.55;;;0.10;;
62709;SDS011;48770;51.624;5.886;2023-04-25T14:02:13;0.30;;;0.10;;
62709;SDS011;48770;51.624;5.886;2023-04-25T14:04:39;0.00;;;0.00;;
62709;SDS011;48770;51.624;5.886;2023-04-25T14:07:05;1.13;;;0.30;;
62709;SDS011;48770;51.624;5.886;2023-04-25T14:09:30;0.10;;;0.00;;
62709;SDS011;48770;51.624;5.886;2023-04-25T14:11:55;0.75;;;0.20;;
62709;SDS011;48770;51.624;5.886;2023-04-25T14:14:21;0.10;;;0.10;;
62709;SDS011;48770;51.624;5.886;2023-04-25T14:16:47;0.38;;;0.20;;
62709;SDS011;48770;51.624;5.886;2023-04-25T14:19:17;0.10;;;0.10;;
62709;SDS011;48770;51.624;5.886;2023-04-25T14:21:43;0.65;;;0.10;;
62709;SDS011;48770;51.624;5.886;2023-04-25T14:24:08;0.20;;;0.10;;
62709;SDS011;48770;51.624;5.886;2023-04-25T14:26:35;0.30;;;0.10;;
62709;SDS011;48770;51.624;5.886;2023-04-25T14:29:01;0.10;;;0.10;;
62709;SDS011;48770;51.624;5.886;2023-04-25T14:31:27;0.30;;;0.10;;
62709;SDS011;48770;51.624;5.886;2023-04-25T14:33:53;0.15;;;0.10;;
62709;SDS011;48770;51.624;5.886;2023-04-25T14:36:18;0.63;;;0.10;;
62709;SDS011;48770;51.624;5.886;2023-04-25T14:38:43;0.35;;;0.00;;
62709;SDS011;48770;51.624;5.886;2023-04-25T14:41:09;0.15;;;0.10;;
62709;SDS011;48770;51.624;5.886;2023-04-25T14:43:35;0.17;;;0.10;;
62709;SDS011;48770;51.624;5.886;2023-04-25T14:46:01;0.17;;;0.10;;
62709;SDS011;48770;51.624;5.886;2023-04-25T14:48:27;0.17;;;0.10;;
62709;SDS011;48770;51.624;5.886;2023-04-25T14:50:52;0.40;;;0.00;;
62709;SDS011;48770;51.624;5.886;2023-04-25T14:53:17;0.28;;;0.10;;
62709;SDS011;48770;51.624;5.886;2023-04-25T14:55:43;0.10;;;0.10;;
62709;SDS011;48770;51.624;5.886;2023-04-25T14:58:08;1.08;;;0.30;;